createdAt,value
2022-10-13T00:20:21.907Z,15.40
2022-10-13T00:22:49.886Z,15.50
2022-10-13T00:25:18.050Z,14.60
2022-10-13T00:27:47.822Z,13.80
2022-10-13T00:32:00.318Z,13.20
2022-10-13T00:33:40.781Z,14.30
2022-10-13T01:04:26.819Z,12.20
2022-10-13T01:06:58.187Z,11.50
2022-10-13T01:09:28.590Z,12.00
2022-10-13T01:12:07.757Z,10.80
2022-10-13T01:14:51.980Z,11.70
2022-10-13T01:38:00.037Z,11.40
2022-10-13T01:55:25.973Z,10.60
2022-10-13T02:12:28.810Z,12.80
2022-10-13T02:18:36.032Z,13.20
2022-10-13T02:21:07.312Z,13.80
2022-10-13T02:23:36.029Z,13.70
2022-10-13T02:26:04.139Z,12.60
2022-10-13T02:28:32.191Z,13.80
2022-10-13T02:31:00.235Z,13.80
2022-10-13T02:33:28.399Z,14.60
2022-10-13T02:35:56.447Z,14.50
2022-10-13T02:38:24.529Z,14.50
2022-10-13T02:40:52.547Z,14.20
2022-10-13T02:43:22.502Z,14.60
2022-10-13T02:45:50.433Z,14.60
2022-10-13T02:48:18.391Z,15.30
2022-10-13T02:50:47.663Z,14.40
2022-10-13T02:53:15.663Z,14.00
2022-10-13T02:55:43.601Z,13.60
2022-10-13T02:58:11.610Z,12.90
2022-10-13T03:00:39.772Z,13.00
2022-10-13T03:03:07.917Z,12.20
2022-10-13T03:05:36.215Z,11.70
2022-10-13T03:08:04.720Z,13.00
2022-10-13T03:10:32.743Z,11.90
2022-10-13T03:13:00.844Z,13.00
2022-10-13T03:23:54.417Z,12.30
2022-10-13T03:26:23.979Z,12.80
2022-10-13T03:28:52.738Z,13.20
2022-10-13T03:31:20.779Z,11.90
2022-10-13T03:33:48.858Z,12.70
2022-10-13T03:36:17.362Z,11.40
2022-10-13T03:38:47.621Z,12.30
2022-10-13T03:41:18.222Z,11.30
2022-10-13T03:43:50.935Z,9.80
2022-10-13T03:46:19.341Z,9.90
2022-10-13T03:48:48.242Z,9.90
2022-10-13T03:51:19.047Z,8.00
2022-10-13T03:53:50.998Z,7.90
2022-10-13T03:56:25.191Z,7.60
2022-10-13T03:58:59.114Z,7.10
2022-10-13T04:01:29.445Z,7.20
2022-10-13T04:03:58.915Z,6.80
2022-10-13T04:06:26.888Z,6.80
2022-10-13T04:08:55.855Z,6.90
2022-10-13T04:11:24.783Z,7.70
2022-10-13T04:13:56.725Z,7.30
2022-10-13T04:16:27.979Z,7.90
2022-10-13T04:23:58.068Z,10.70
2022-10-13T04:36:31.224Z,12.70
2022-10-13T05:20:11.909Z,16.20
2022-10-13T05:22:39.790Z,15.50
2022-10-13T05:25:07.965Z,16.40
2022-10-13T05:27:35.879Z,15.50
2022-10-13T05:30:08.114Z,16.40
2022-10-13T05:32:36.233Z,16.40
2022-10-13T05:35:04.373Z,15.80
2022-10-13T05:37:32.353Z,15.30
2022-10-13T05:40:00.373Z,14.20
2022-10-13T05:42:29.572Z,25.10
2022-10-13T05:44:57.577Z,15.20
2022-10-13T05:47:28.252Z,24.10
2022-10-13T05:49:57.137Z,15.10
2022-10-13T05:52:26.583Z,12.90
2022-10-13T05:55:02.774Z,11.80
2022-10-13T05:57:34.958Z,12.10
2022-10-13T06:00:09.366Z,12.60
2022-10-13T06:02:46.522Z,10.80
2022-10-13T06:05:18.035Z,9.70
2022-10-13T06:07:48.138Z,10.00
2022-10-13T06:10:16.209Z,9.60
2022-10-13T06:12:44.344Z,9.40
2022-10-13T06:15:12.229Z,10.30
2022-10-13T06:17:40.743Z,8.80
2022-10-13T06:20:09.236Z,10.30
2022-10-13T06:22:38.059Z,9.60
2022-10-13T06:25:08.032Z,9.40
2022-10-13T06:27:35.912Z,9.60
2022-10-13T06:30:04.570Z,9.10
2022-10-13T06:32:34.255Z,10.00
2022-10-13T06:35:03.488Z,10.00
2022-10-13T06:37:31.463Z,9.50
2022-10-13T06:39:59.333Z,12.20
2022-10-13T06:42:30.993Z,11.90
2022-10-13T06:45:11.122Z,11.40
2022-10-13T06:47:41.338Z,12.70
2022-10-13T06:50:09.687Z,13.20
2022-10-13T06:52:37.931Z,12.30
2022-10-13T06:55:06.305Z,12.80
2022-10-13T06:57:34.459Z,13.70
2022-10-13T07:00:07.202Z,12.90
2022-10-13T07:02:36.207Z,13.10
2022-10-13T07:05:04.378Z,12.50
2022-10-13T07:07:32.447Z,12.50
2022-10-13T07:10:00.319Z,12.60
2022-10-13T07:12:28.608Z,13.10
2022-10-13T07:14:56.987Z,12.90
2022-10-13T07:17:24.972Z,12.50
2022-10-13T07:19:57.097Z,13.70
2022-10-13T07:22:26.851Z,13.80
2022-10-13T07:24:54.802Z,14.00
2022-10-13T07:27:23.533Z,14.30
2022-10-13T07:29:51.850Z,16.40
2022-10-13T07:32:19.842Z,15.00
2022-10-13T07:34:47.865Z,15.60
2022-10-13T07:37:15.818Z,14.40
2022-10-13T07:39:43.785Z,14.40
2022-10-13T07:42:11.639Z,15.80
2022-10-13T07:44:39.515Z,15.10
2022-10-13T07:47:07.477Z,14.70
2022-10-13T07:49:35.368Z,15.20
2022-10-13T07:52:05.025Z,14.20
2022-10-13T07:54:32.999Z,13.50
2022-10-13T07:57:00.878Z,14.50
2022-10-13T07:59:28.784Z,13.10
2022-10-13T08:01:56.847Z,14.90
2022-10-13T08:04:25.573Z,13.40
2022-10-13T08:06:53.538Z,13.90
2022-10-13T08:09:21.580Z,13.50
2022-10-13T08:11:49.486Z,14.40
2022-10-13T08:14:17.592Z,14.10
2022-10-13T08:16:48.738Z,14.90
2022-10-13T08:19:22.238Z,13.60
2022-10-13T08:21:58.316Z,13.90
2022-10-13T08:24:28.413Z,15.70
2022-10-13T08:26:56.581Z,14.60
2022-10-13T08:29:24.803Z,16.30
2022-10-13T08:31:54.373Z,19.50
2022-10-13T08:34:23.801Z,19.50
2022-10-13T08:36:54.601Z,17.90
2022-10-13T08:39:24.388Z,19.40
2022-10-13T08:41:54.452Z,21.30
2022-10-13T08:47:36.529Z,22.00
2022-10-13T08:50:13.487Z,24.30
2022-10-13T08:52:58.525Z,26.80
2022-10-13T08:55:44.755Z,27.50
2022-10-13T08:58:18.999Z,29.60
2022-10-13T09:00:47.039Z,26.50
2022-10-13T09:03:27.839Z,29.80
2022-10-13T09:06:27.272Z,31.10
2022-10-13T09:08:58.771Z,31.40
2022-10-13T13:40:28.769Z,12.30
2022-10-13T13:42:56.824Z,11.20
2022-10-13T13:45:27.318Z,12.30
2022-10-13T13:48:00.390Z,10.80
2022-10-13T13:50:35.676Z,13.90
2022-10-13T13:53:06.425Z,11.90
2022-10-13T13:55:35.849Z,12.20
2022-10-13T13:58:04.459Z,10.90
2022-10-13T14:00:32.405Z,11.00
2022-10-13T14:03:00.339Z,12.40
2022-10-13T14:05:28.248Z,11.00
2022-10-13T14:07:58.080Z,11.40
2022-10-13T14:10:26.805Z,11.20
2022-10-13T14:12:54.874Z,11.00
2022-10-13T14:15:27.218Z,11.30
2022-10-13T14:17:56.960Z,10.80
2022-10-13T14:20:24.845Z,10.70
2022-10-13T14:22:52.798Z,10.80
2022-10-13T14:25:20.943Z,10.60
2022-10-13T14:27:48.801Z,10.70
2022-10-13T14:30:16.967Z,11.60
2022-10-13T14:32:44.912Z,11.40
2022-10-13T14:35:12.916Z,10.90
2022-10-13T14:37:40.851Z,11.00
2022-10-13T14:40:09.341Z,11.20
2022-10-13T14:42:38.985Z,10.80
2022-10-13T14:45:08.578Z,11.00
2022-10-13T14:47:36.627Z,11.40
2022-10-13T14:50:05.119Z,11.10
2022-10-13T14:52:32.992Z,11.80
2022-10-13T14:55:00.855Z,11.70
2022-10-13T14:57:28.715Z,12.10
2022-10-13T15:00:00.862Z,12.90
2022-10-13T15:02:30.264Z,10.90
2022-10-13T15:04:58.097Z,12.30
2022-10-13T15:07:25.907Z,12.30
2022-10-13T15:10:04.975Z,13.30
2022-10-13T15:12:34.687Z,14.30
2022-10-13T15:15:03.451Z,12.60
2022-10-13T15:17:33.398Z,12.50
2022-10-13T15:20:01.661Z,11.80
2022-10-13T15:22:29.635Z,15.20
2022-10-13T15:24:57.487Z,16.60
2022-10-13T15:27:25.442Z,17.60
2022-10-13T15:29:53.282Z,15.00
2022-10-13T15:32:21.959Z,14.20
2022-10-13T15:34:55.910Z,13.60
2022-10-13T15:37:23.822Z,12.90
2022-10-13T15:39:56.855Z,12.50
2022-10-13T15:42:25.505Z,11.90
2022-10-13T15:45:10.703Z,10.70
2022-10-13T15:47:39.642Z,10.80
2022-10-13T15:50:09.899Z,11.50
2022-10-13T15:52:41.476Z,11.00
2022-10-13T15:55:11.903Z,10.40
2022-10-13T15:57:40.492Z,11.10
2022-10-13T16:00:11.348Z,10.10
2022-10-13T16:02:43.667Z,10.80
2022-10-13T16:05:14.069Z,10.90
2022-10-13T16:07:42.818Z,11.20
2022-10-13T16:10:13.496Z,10.40
2022-10-13T16:12:48.359Z,11.00
2022-10-13T16:15:18.470Z,11.40
2022-10-13T16:17:46.562Z,11.30
2022-10-13T16:20:14.805Z,11.40
2022-10-13T16:22:42.798Z,14.90
2022-10-13T16:25:11.481Z,16.50
2022-10-13T16:27:43.849Z,14.60
2022-10-13T16:30:12.819Z,14.00
2022-10-13T16:32:41.340Z,14.60
2022-10-13T16:35:09.441Z,14.50
2022-10-13T16:37:37.556Z,13.00
2022-10-13T16:40:05.948Z,14.00
2022-10-13T16:42:34.933Z,13.10
2022-10-13T16:45:05.528Z,13.80
2022-10-13T16:47:33.386Z,15.00
2022-10-13T16:50:01.317Z,14.80
2022-10-13T16:52:29.769Z,14.50
2022-10-13T16:54:57.680Z,15.90
2022-10-13T16:57:26.001Z,15.90
2022-10-13T16:59:53.931Z,23.20
2022-10-13T17:02:21.819Z,17.60
2022-10-13T17:04:49.743Z,17.20
2022-10-13T17:07:17.662Z,16.20
2022-10-13T17:09:45.602Z,16.70
2022-10-13T17:12:13.545Z,16.20
2022-10-13T17:14:41.411Z,15.30
2022-10-13T17:17:09.411Z,16.60
2022-10-13T17:19:37.332Z,16.20
2022-10-13T17:22:05.279Z,14.10
2022-10-13T17:24:33.307Z,13.90
2022-10-13T17:27:01.244Z,15.50
2022-10-13T17:29:29.410Z,15.00
2022-10-13T17:31:57.493Z,15.60
2022-10-13T17:34:25.371Z,14.50
2022-10-13T17:36:53.193Z,13.80
2022-10-13T17:39:21.005Z,15.10
2022-10-13T17:41:49.153Z,14.90
2022-10-13T17:44:20.662Z,14.00
2022-10-13T17:46:50.146Z,14.00
2022-10-13T17:49:19.319Z,14.00
2022-10-13T17:51:51.518Z,13.80
2022-10-13T17:54:20.473Z,14.40
2022-10-13T17:56:49.717Z,13.20
2022-10-13T17:59:18.382Z,12.30
2022-10-13T18:01:46.416Z,14.10
2022-10-13T18:04:17.489Z,15.00
2022-10-13T18:06:45.811Z,17.00
2022-10-13T18:09:17.967Z,14.90
2022-10-13T18:11:50.609Z,14.20
2022-10-13T18:14:20.750Z,14.30
2022-10-13T18:16:50.976Z,13.40
2022-10-13T18:19:19.488Z,14.40
2022-10-13T18:21:47.634Z,15.20
2022-10-13T18:24:16.099Z,14.70
2022-10-13T18:26:44.022Z,15.10
2022-10-13T18:29:13.163Z,14.80
2022-10-13T18:31:42.195Z,16.10
2022-10-13T18:34:17.154Z,16.40
2022-10-13T18:36:47.587Z,16.00
2022-10-13T18:39:21.487Z,16.70
2022-10-13T18:41:50.679Z,17.10
2022-10-13T18:44:19.784Z,17.20
2022-10-13T18:46:52.485Z,16.30
2022-10-13T18:49:23.421Z,17.40
2022-10-13T18:51:52.119Z,16.50
2022-10-13T18:54:20.449Z,16.20
2022-10-13T18:56:48.491Z,18.30
2022-10-13T18:59:17.790Z,18.10
2022-10-13T19:01:45.947Z,17.40
2022-10-13T19:04:16.466Z,17.90
2022-10-13T19:06:45.162Z,20.10
2022-10-13T19:09:15.978Z,17.80
2022-10-13T19:11:44.276Z,17.20
2022-10-13T19:14:14.234Z,17.40
2022-10-13T19:16:43.910Z,15.50
2022-10-13T19:19:14.710Z,16.60
2022-10-13T19:21:43.722Z,16.00
2022-10-13T19:24:12.545Z,17.30
2022-10-13T19:26:44.748Z,16.00
2022-10-13T19:29:16.152Z,15.90
2022-10-13T19:31:46.768Z,15.00
2022-10-13T19:34:26.388Z,16.50
2022-10-13T19:37:55.702Z,17.60
2022-10-13T19:40:25.582Z,16.60
2022-10-13T19:42:55.438Z,17.60
2022-10-13T19:45:59.603Z,16.90
2022-10-13T19:48:54.563Z,18.60
2022-10-13T19:52:16.985Z,18.30
2022-10-13T19:54:47.112Z,17.30
2022-10-13T19:57:16.944Z,17.90
2022-10-13T20:00:40.316Z,15.90
2022-10-13T20:04:03.212Z,17.00
2022-10-13T20:06:47.334Z,16.80
2022-10-13T20:09:16.953Z,15.30
2022-10-13T20:12:40.812Z,16.00
2022-10-13T20:15:24.990Z,16.70
2022-10-13T20:17:56.514Z,17.40
2022-10-13T20:20:27.786Z,16.10
2022-10-13T20:23:00.090Z,16.60
2022-10-13T20:25:28.927Z,15.70
2022-10-13T20:27:57.724Z,16.50
2022-10-13T20:30:27.663Z,16.60
2022-10-13T20:32:58.564Z,16.90
2022-10-13T20:45:17.726Z,15.70
2022-10-13T20:47:47.041Z,16.60
2022-10-13T20:50:29.007Z,16.50
2022-10-13T20:52:56.956Z,16.80
2022-10-13T20:55:24.890Z,16.80
2022-10-13T20:57:52.983Z,17.50
2022-10-13T21:07:50.474Z,16.70
2022-10-13T21:11:15.696Z,17.50
2022-10-13T21:14:12.144Z,17.40
2022-10-13T21:16:42.006Z,18.10
2022-10-13T21:20:00.912Z,18.60
2022-10-13T21:22:31.388Z,20.80
2022-10-13T21:25:07.206Z,23.30
2022-10-13T21:27:35.212Z,23.00
2022-10-13T21:30:05.016Z,23.30
2022-10-13T21:32:32.978Z,22.80
2022-10-13T21:35:05.332Z,24.00
2022-10-13T21:37:35.019Z,23.80
2022-10-13T21:40:04.879Z,21.70
2022-10-13T21:42:33.835Z,22.80
2022-10-13T21:45:34.799Z,21.40
2022-10-13T21:48:02.944Z,23.90
2022-10-13T21:51:22.650Z,22.50
2022-10-13T22:10:39.869Z,18.40
2022-10-13T22:13:24.250Z,17.60
2022-10-13T22:16:22.381Z,18.90
2022-10-13T22:19:21.293Z,19.30
2022-10-13T22:47:33.793Z,17.40
2022-10-13T23:22:07.444Z,15.50
2022-10-13T23:24:35.443Z,15.70
2022-10-13T23:27:03.497Z,14.50
2022-10-13T23:29:32.081Z,15.60
2022-10-13T23:32:00.032Z,16.40
2022-10-13T23:34:29.367Z,16.50
2022-10-13T23:36:57.637Z,16.70
2022-10-13T23:39:25.875Z,16.40
2022-10-13T23:41:53.826Z,16.10
2022-10-13T23:44:21.849Z,17.30
2022-10-13T23:46:51.297Z,15.70
2022-10-13T23:49:22.709Z,16.50
2022-10-13T23:51:50.550Z,16.60
2022-10-13T23:54:19.151Z,21.90
2022-10-13T23:56:47.089Z,17.90
